createdAt,value
2023-11-09T07:13:04.830Z,99972.30
2023-11-09T07:15:22.048Z,99967.75
2023-11-09T07:17:36.641Z,99966.96
2023-11-09T07:19:50.860Z,99962.14
2023-11-09T07:22:07.088Z,99961.56
2023-11-09T07:24:20.327Z,99956.98
2023-11-09T07:26:33.191Z,99957.44
2023-11-09T07:28:46.057Z,99954.58
2023-11-09T07:31:02.256Z,99959.47
2023-11-09T07:33:16.414Z,99962.85
2023-11-09T07:35:30.731Z,99959.42
2023-11-09T07:37:43.589Z,99957.88
2023-11-09T07:39:56.959Z,99958.56
2023-11-09T07:42:10.979Z,99947.89
2023-11-09T07:44:23.899Z,99940.48
2023-11-09T07:46:36.717Z,99934.02
2023-11-09T07:48:49.704Z,99928.33
2023-11-09T07:51:02.661Z,99921.51
2023-11-09T07:53:16.178Z,99915.32
2023-11-09T07:55:32.200Z,99918.48
2023-11-09T07:57:46.421Z,99924.24
2023-11-09T08:00:05.032Z,99918.88
2023-11-09T08:02:20.691Z,99923.54
2023-11-09T08:04:33.549Z,99927.55
2023-11-09T08:06:46.716Z,99915.64
2023-11-09T08:09:01.099Z,99906.63
2023-11-09T08:11:15.005Z,99903.04
2023-11-09T08:13:29.578Z,99906.41
2023-11-09T08:15:42.663Z,99908.91
2023-11-09T08:17:55.620Z,99902.95
2023-11-09T08:20:15.296Z,99903.27
2023-11-09T08:22:28.856Z,99907.10
2023-11-09T08:24:43.830Z,99897.69
2023-11-09T08:26:58.385Z,99899.23
2023-11-09T08:29:11.257Z,99901.49
2023-11-09T08:31:25.430Z,99893.95
2023-11-09T08:33:39.356Z,99893.11
2023-11-09T08:35:54.898Z,99884.29
2023-11-09T08:38:10.198Z,99881.35
2023-11-09T08:40:29.739Z,99878.31
2023-11-09T08:42:43.764Z,99875.61
2023-11-09T08:44:56.562Z,99874.28
2023-11-09T08:47:09.380Z,99877.54
2023-11-09T08:49:25.391Z,99874.95
2023-11-09T08:51:40.493Z,99869.17
2023-11-09T08:53:54.654Z,99865.77
2023-11-09T08:56:08.703Z,99861.69
2023-11-09T08:58:21.668Z,99861.71
2023-11-09T09:00:35.509Z,99862.35
2023-11-09T09:02:51.458Z,99858.78
2023-11-09T09:05:04.814Z,99857.11
2023-11-09T09:07:17.820Z,99857.90
2023-11-09T09:09:37.907Z,99855.64
2023-11-09T09:11:57.977Z,99855.68
2023-11-09T09:14:12.958Z,99862.02
2023-11-09T09:16:26.776Z,99859.27
2023-11-09T09:18:40.422Z,99852.95
2023-11-09T09:20:54.232Z,99857.03
2023-11-09T09:23:08.948Z,99853.27
2023-11-09T09:25:24.184Z,99852.88
2023-11-09T09:27:44.242Z,99842.91
2023-11-09T09:29:57.983Z,99835.34
2023-11-09T09:32:12.106Z,99829.66
2023-11-09T09:34:26.731Z,99828.73
2023-11-09T09:36:40.065Z,99826.58
2023-11-09T09:38:52.955Z,99824.23
2023-11-09T09:41:11.820Z,99820.92
2023-11-09T09:43:25.171Z,99822.31
2023-11-09T09:45:38.719Z,99814.39
2023-11-09T09:47:54.488Z,99814.08
2023-11-09T09:50:08.813Z,99813.27
2023-11-09T09:52:22.344Z,99815.98
2023-11-09T09:54:35.400Z,99805.42
2023-11-09T09:56:48.665Z,99806.23
2023-11-09T09:59:02.585Z,99806.09
2023-11-09T10:01:16.143Z,99806.02
2023-11-09T10:03:30.595Z,99799.79
2023-11-09T10:05:44.860Z,99799.38
2023-11-09T10:08:00.502Z,99794.21
2023-11-09T10:10:17.670Z,99791.14
2023-11-09T10:12:30.947Z,99787.52
2023-11-09T10:14:43.742Z,99781.10
2023-11-09T10:16:57.028Z,99772.50
2023-11-09T10:19:10.747Z,99784.66
2023-11-09T10:21:23.654Z,99781.00
2023-11-09T10:23:36.522Z,99774.27
2023-11-09T10:25:49.409Z,99766.73
2023-11-09T10:28:02.845Z,99766.38
2023-11-09T10:30:19.741Z,99760.36
2023-11-09T10:32:35.102Z,99758.33
2023-11-09T10:34:48.013Z,99752.36
2023-11-09T10:37:01.304Z,99747.96
2023-11-09T10:39:18.822Z,99748.66
2023-11-09T10:41:54.094Z,99741.13
2023-11-09T10:44:07.938Z,99739.68
2023-11-09T10:46:21.832Z,99739.08
2023-11-09T10:48:39.486Z,99738.66
2023-11-09T10:50:56.415Z,99737.73
2023-11-09T10:53:11.681Z,99736.29
2023-11-09T10:55:24.775Z,99735.02
2023-11-09T10:57:44.271Z,99731.08
2023-11-09T10:59:57.311Z,99729.55
2023-11-09T11:02:17.852Z,99729.20
2023-11-09T11:04:35.960Z,99727.73
2023-11-09T11:06:52.436Z,99727.67
2023-11-09T11:09:19.623Z,99724.34
2023-11-09T11:11:35.618Z,99721.02
2023-11-09T11:13:58.494Z,99719.48
2023-11-09T11:16:11.367Z,99711.52
2023-11-09T11:18:57.698Z,99713.26
2023-11-09T11:21:25.096Z,99706.11
2023-11-09T11:24:11.830Z,99695.52
2023-11-09T11:26:43.510Z,99692.27
2023-11-09T11:29:06.076Z,99687.76
2023-11-09T11:31:21.576Z,99683.35
2023-11-09T11:33:37.532Z,99680.27
2023-11-09T11:35:57.883Z,99685.39
2023-11-09T11:38:16.931Z,99686.55
2023-11-09T11:40:34.997Z,99684.67
2023-11-09T11:42:57.932Z,99683.61
2023-11-09T11:45:12.962Z,99675.27
2023-11-09T11:47:30.641Z,99679.80
2023-11-09T11:49:43.773Z,99677.91
2023-11-09T11:51:59.079Z,99671.72
2023-11-09T11:54:14.404Z,99669.80
2023-11-09T11:56:39.499Z,99669.48
2023-11-09T11:59:02.839Z,99664.55
2023-11-09T12:01:32.809Z,99657.54
2023-11-09T12:03:49.562Z,99654.48
2023-11-09T12:06:14.376Z,99653.12
2023-11-09T12:08:35.190Z,99645.97
2023-11-09T12:10:54.641Z,99643.04
2023-11-09T12:13:09.986Z,99644.23
2023-11-09T12:15:29.333Z,99641.00
2023-11-09T12:17:45.248Z,99641.41
2023-11-09T12:20:03.071Z,99639.13
2023-11-09T12:22:16.590Z,99638.50
2023-11-09T12:24:29.756Z,99635.99
2023-11-09T12:26:44.048Z,99634.52
2023-11-09T12:28:57.962Z,99630.63
2023-11-09T12:31:15.228Z,99633.42
2023-11-09T12:33:35.792Z,99628.55
2023-11-09T12:36:03.548Z,99630.46
2023-11-09T12:38:17.110Z,99627.63
2023-11-09T12:40:32.927Z,99626.98
2023-11-09T12:43:07.846Z,99620.63
2023-11-09T12:45:43.653Z,99622.35
2023-11-09T12:48:22.593Z,99623.80
2023-11-09T12:50:38.560Z,99620.37
2023-11-09T12:52:56.261Z,99617.77
2023-11-09T12:55:11.455Z,99610.11
2023-11-09T12:57:26.950Z,99611.80
2023-11-09T12:59:43.754Z,99610.16
2023-11-09T13:01:57.464Z,99614.14
2023-11-09T13:04:23.134Z,99614.54
2023-11-09T13:06:37.140Z,99604.02
2023-11-09T13:08:51.101Z,99607.09
2023-11-09T13:11:06.619Z,99608.08
2023-11-09T13:13:23.706Z,99610.90
2023-11-09T13:15:39.861Z,99604.69
2023-11-09T13:17:53.829Z,99604.27
2023-11-09T13:20:08.293Z,99603.66
2023-11-09T13:22:21.184Z,99599.52
2023-11-09T13:24:35.468Z,99599.67
2023-11-09T13:26:48.323Z,99603.01
2023-11-09T13:31:29.884Z,99600.86
2023-11-09T13:33:46.378Z,99598.48
2023-11-09T13:36:06.172Z,99596.92
2023-11-09T13:38:31.306Z,99595.71
2023-11-09T13:40:47.346Z,99598.30
2023-11-09T13:43:10.261Z,99598.86
2023-11-09T13:45:49.280Z,99599.17
2023-11-09T13:48:13.538Z,99597.33
2023-11-09T13:50:27.017Z,99599.30
2023-11-09T13:52:46.901Z,99603.16
2023-11-09T13:55:14.500Z,99607.52
2023-11-09T13:57:28.404Z,99610.28
2023-11-09T13:59:46.806Z,99611.74
2023-11-09T14:02:01.762Z,99615.17
2023-11-09T14:04:20.692Z,99607.48
2023-11-09T14:06:35.612Z,99609.69
2023-11-09T14:08:51.067Z,99611.02
2023-11-09T14:11:05.397Z,99616.72
2023-11-09T14:13:29.737Z,99613.33
2023-11-09T14:15:50.651Z,99609.66
2023-11-09T14:18:26.465Z,99603.81
2023-11-09T14:20:44.018Z,99607.77
2023-11-09T14:22:57.428Z,99607.25
2023-11-09T14:25:15.991Z,99607.00
2023-11-09T14:27:28.882Z,99607.25
2023-11-09T14:29:47.867Z,99606.02
2023-11-09T14:32:00.951Z,99610.35
2023-11-09T14:34:15.649Z,99609.56
2023-11-09T14:36:28.510Z,99610.56
2023-11-09T14:38:48.612Z,99609.65
2023-11-09T14:41:07.799Z,99605.00
2023-11-09T14:43:21.490Z,99608.71
2023-11-09T14:45:34.532Z,99602.08
2023-11-09T14:47:47.645Z,99603.58
2023-11-09T14:50:00.705Z,99600.71
2023-11-09T14:52:22.126Z,99601.13
2023-11-09T14:54:41.729Z,99601.23
2023-11-09T14:56:54.706Z,99598.87
2023-11-09T14:59:08.078Z,99596.16
2023-11-09T15:01:21.012Z,99597.30
2023-11-09T15:03:35.634Z,99598.72
2023-11-09T15:05:54.059Z,99603.05
2023-11-09T15:08:10.777Z,99598.56
2023-11-09T15:10:27.104Z,99595.14
2023-11-09T15:12:41.800Z,99597.39
2023-11-09T15:14:55.689Z,99594.91
2023-11-09T15:17:09.424Z,99591.81
2023-11-09T15:19:23.598Z,99595.37
2023-11-09T15:21:36.459Z,99589.52
2023-11-09T15:23:49.878Z,99585.44
2023-11-09T15:26:02.870Z,99584.84
2023-11-09T15:28:15.792Z,99582.92
2023-11-09T15:30:32.110Z,99577.77
2023-11-09T15:32:45.043Z,99579.30
2023-11-09T15:34:57.899Z,99582.46
2023-11-09T15:37:17.723Z,99577.63
2023-11-09T15:39:51.822Z,99573.57
2023-11-09T15:42:06.799Z,99573.79
2023-11-09T15:44:19.630Z,99569.56
2023-11-09T15:46:32.525Z,99563.67
2023-11-09T15:48:47.265Z,99561.30
2023-11-09T15:51:00.526Z,99564.14
2023-11-09T15:53:13.339Z,99559.56
2023-11-09T15:55:26.243Z,99561.46
2023-11-09T15:57:39.431Z,99563.69
2023-11-09T15:59:54.760Z,99566.62
2023-11-09T16:02:08.967Z,99572.65
2023-11-09T16:04:21.930Z,99576.86
2023-11-09T16:06:35.279Z,99573.97
2023-11-09T16:08:48.203Z,99575.39
2023-11-09T16:11:01.410Z,99580.55
2023-11-09T16:13:15.659Z,99577.22
2023-11-09T16:15:31.034Z,99577.45
2023-11-09T16:17:49.805Z,99576.23
2023-11-09T16:20:03.033Z,99579.85
2023-11-09T16:22:15.886Z,99579.55
2023-11-09T16:24:31.912Z,99578.83
2023-11-09T16:26:46.968Z,99573.37
2023-11-09T16:29:02.322Z,99574.91
2023-11-09T16:31:17.691Z,99574.30
2023-11-09T16:33:31.117Z,99579.01
2023-11-09T16:35:44.711Z,99582.38
2023-11-09T16:37:58.397Z,99578.52
2023-11-09T16:40:12.866Z,99578.39
2023-11-09T16:42:25.667Z,99578.80
2023-11-09T16:44:38.536Z,99582.41
2023-11-09T16:46:52.183Z,99582.63
2023-11-09T16:49:07.309Z,99584.91
2023-11-09T16:51:20.235Z,99584.57
2023-11-09T16:53:33.109Z,99582.46
2023-11-09T16:55:46.116Z,99585.24
2023-11-09T16:57:59.750Z,99583.10
2023-11-09T17:00:16.260Z,99585.54
2023-11-09T17:02:29.305Z,99580.18
2023-11-09T17:04:42.236Z,99580.05
2023-11-09T17:06:55.208Z,99576.69
2023-11-09T17:09:10.585Z,99578.33
2023-11-09T17:11:24.153Z,99581.21
2023-11-09T17:13:39.454Z,99584.71
2023-11-09T17:15:52.259Z,99582.27
2023-11-09T17:18:08.712Z,99591.02
2023-11-09T17:20:21.598Z,99585.09
2023-11-09T17:22:34.562Z,99588.58
2023-11-09T17:24:47.352Z,99590.89
2023-11-09T17:27:00.333Z,99589.21
2023-11-09T17:29:13.198Z,99586.20
2023-11-09T17:31:27.111Z,99584.68
2023-11-09T17:33:40.175Z,99580.20
2023-11-09T17:35:53.256Z,99577.95
2023-11-09T17:38:06.234Z,99582.40
2023-11-09T17:40:19.550Z,99581.02
2023-11-09T17:42:32.905Z,99575.66
2023-11-09T17:44:46.358Z,99572.67
2023-11-09T17:46:59.274Z,99572.77
2023-11-09T17:49:13.614Z,99574.66
2023-11-09T17:51:27.690Z,99576.89
2023-11-09T17:53:40.621Z,99578.01
2023-11-09T17:55:54.217Z,99582.12
2023-11-09T17:58:09.089Z,99576.96
2023-11-09T18:00:22.403Z,99576.42
2023-11-09T18:02:35.418Z,99573.03
2023-11-09T18:04:48.410Z,99574.79
2023-11-09T18:07:01.217Z,99569.70
2023-11-09T18:09:16.247Z,99564.77
2023-11-09T18:11:41.217Z,99564.41
2023-11-09T18:13:57.391Z,99557.06
2023-11-09T18:16:11.214Z,99547.04
2023-11-09T18:18:24.377Z,99551.95
2023-11-09T18:20:37.812Z,99546.23
2023-11-09T18:22:50.927Z,99553.89
2023-11-09T18:25:06.322Z,99558.61
2023-11-09T18:27:20.734Z,99551.48
2023-11-09T18:29:34.003Z,99555.31
2023-11-09T18:31:47.287Z,99551.42
2023-11-09T18:34:00.756Z,99543.21
2023-11-09T18:36:13.656Z,99542.19
2023-11-09T18:38:26.528Z,99540.73
2023-11-09T18:40:39.558Z,99534.75
2023-11-09T18:42:52.562Z,99542.01
2023-11-09T18:45:06.268Z,99543.81
2023-11-09T18:47:19.266Z,99540.38
2023-11-09T18:51:47.816Z,99536.98
2023-11-09T18:54:01.516Z,99541.08
2023-11-09T18:56:15.511Z,99536.88
2023-11-09T18:58:28.384Z,99533.55
2023-11-09T19:00:41.265Z,99523.69
2023-11-09T19:05:10.175Z,99517.92
2023-11-09T19:07:23.761Z,99514.50
2023-11-09T19:09:36.729Z,99515.31
2023-11-09T19:11:49.698Z,99512.32
2023-11-09T19:14:02.749Z,99509.48
2023-11-09T19:16:15.702Z,99511.11
2023-11-09T19:18:28.650Z,99513.45
2023-11-09T19:23:07.739Z,99506.35
2023-11-09T19:25:21.057Z,99506.98
2023-11-09T19:27:34.042Z,99503.16
2023-11-09T19:29:46.969Z,99503.03
2023-11-09T19:31:59.874Z,99504.86
2023-11-09T19:34:13.057Z,99500.45
2023-11-09T19:36:26.619Z,99495.52
2023-11-09T19:38:39.700Z,99488.64
2023-11-09T19:40:53.118Z,99488.16
2023-11-09T19:43:07.388Z,99483.77
2023-11-09T19:45:25.243Z,99484.88
2023-11-09T19:47:38.245Z,99486.09
2023-11-09T19:49:51.319Z,99483.77
2023-11-09T19:52:05.885Z,99481.96
2023-11-09T19:54:18.830Z,99481.34
2023-11-09T19:56:32.096Z,99485.32
2023-11-09T19:58:44.933Z,99488.60
2023-11-09T20:00:58.666Z,99485.34
2023-11-09T20:03:12.909Z,99486.52
2023-11-09T20:05:26.834Z,99489.80
2023-11-09T20:07:40.174Z,99495.52
2023-11-09T20:09:53.031Z,99498.74
2023-11-09T20:12:06.213Z,99497.44
2023-11-09T20:14:19.198Z,99498.11
2023-11-09T20:16:35.020Z,99499.70
2023-11-09T20:18:47.885Z,99501.88
2023-11-09T20:21:01.139Z,99498.23
2023-11-09T20:23:15.864Z,99496.04
2023-11-09T20:25:28.855Z,99495.36
2023-11-09T20:27:41.917Z,99496.27
2023-11-09T20:29:54.830Z,99500.48
2023-11-09T20:32:11.409Z,99496.68
2023-11-09T20:34:24.445Z,99495.83
2023-11-09T20:36:38.854Z,99495.48
2023-11-09T20:38:52.611Z,99488.69
2023-11-09T20:41:05.565Z,99490.20
2023-11-09T20:43:19.209Z,99492.53
2023-11-09T20:45:32.117Z,99497.84
2023-11-09T20:47:45.006Z,99499.63
2023-11-09T20:49:58.275Z,99498.23
2023-11-09T20:52:11.114Z,99506.08
2023-11-09T20:54:23.954Z,99508.30
2023-11-09T20:56:36.996Z,99514.55
2023-11-09T20:58:49.995Z,99516.53
2023-11-09T21:01:04.025Z,99519.34
2023-11-09T21:03:17.278Z,99521.44
2023-11-09T21:05:30.255Z,99524.27
2023-11-09T21:07:43.216Z,99527.78
2023-11-09T21:09:57.896Z,99531.97
2023-11-09T21:12:10.825Z,99531.84
2023-11-09T21:14:24.285Z,99533.27
2023-11-09T21:16:37.242Z,99533.48
2023-11-09T21:18:50.126Z,99532.96
2023-11-09T21:21:04.044Z,99531.55
2023-11-09T21:23:17.725Z,99528.77
2023-11-09T21:25:30.825Z,99530.76
2023-11-09T21:27:46.077Z,99528.79
2023-11-09T21:29:58.906Z,99526.85
2023-11-09T21:32:12.317Z,99530.27
2023-11-09T21:34:25.375Z,99527.44
2023-11-09T21:36:39.426Z,99526.96
2023-11-09T21:38:53.600Z,99517.95
2023-11-09T21:41:06.406Z,99517.48
2023-11-09T21:43:19.300Z,99514.05
2023-11-09T21:45:32.787Z,99514.91
2023-11-09T21:47:46.542Z,99513.39
2023-11-09T21:49:59.470Z,99515.33
2023-11-09T21:52:13.024Z,99512.78
2023-11-09T21:54:27.552Z,99506.98
2023-11-09T21:56:44.292Z,99502.42
2023-11-09T21:58:57.123Z,99499.17
2023-11-09T22:01:12.405Z,99494.45
2023-11-09T22:03:26.007Z,99486.35
2023-11-09T22:05:39.665Z,99486.63
2023-11-09T22:07:52.684Z,99480.90
2023-11-09T22:10:09.395Z,99480.04
2023-11-09T22:12:22.575Z,99481.14
2023-11-09T22:14:36.164Z,99471.54
2023-11-09T22:16:49.038Z,99469.88
2023-11-09T22:19:03.635Z,99462.71
2023-11-09T22:21:17.915Z,99461.92
2023-11-09T22:23:30.884Z,99457.30
2023-11-09T22:25:43.618Z,99454.05
2023-11-09T22:27:56.516Z,99450.46
2023-11-09T22:30:09.855Z,99453.19
2023-11-09T22:32:24.101Z,99462.69
2023-11-09T22:34:37.752Z,99470.70
2023-11-09T22:36:51.316Z,99479.43
2023-11-09T22:39:06.702Z,99479.12
2023-11-09T22:41:19.634Z,99479.77
2023-11-09T22:43:32.513Z,99481.23
2023-11-09T22:45:45.712Z,99486.42
2023-11-09T22:47:58.579Z,99494.54
2023-11-09T22:50:11.716Z,99495.26
2023-11-09T22:52:24.573Z,99496.02
2023-11-09T22:54:37.519Z,99497.36
2023-11-09T22:56:51.664Z,99488.09
2023-11-09T22:59:04.559Z,99479.02
2023-11-09T23:01:29.692Z,99476.45
2023-11-09T23:03:42.833Z,99470.02
2023-11-09T23:05:56.294Z,99469.98
2023-11-09T23:08:09.302Z,99464.42
2023-11-09T23:10:22.209Z,99465.96
2023-11-09T23:12:35.200Z,99466.66
2023-11-09T23:14:48.201Z,99463.88
2023-11-09T23:17:01.964Z,99469.78
2023-11-09T23:19:14.939Z,99478.36
2023-11-09T23:21:27.945Z,99474.14
2023-11-09T23:23:40.772Z,99475.11
2023-11-09T23:25:53.594Z,99471.09
2023-11-09T23:28:06.620Z,99466.47
2023-11-09T23:30:19.549Z,99463.19
2023-11-09T23:32:32.737Z,99461.18
2023-11-09T23:34:46.510Z,99460.05
2023-11-09T23:36:59.346Z,99460.65
2023-11-09T23:39:12.320Z,99454.80
2023-11-09T23:41:25.285Z,99452.72
2023-11-09T23:43:38.156Z,99449.32
2023-11-09T23:45:51.487Z,99447.98
2023-11-09T23:48:12.297Z,99442.52
2023-11-09T23:50:26.403Z,99438.28
2023-11-09T23:52:39.526Z,99436.03
2023-11-09T23:54:52.337Z,99429.86
2023-11-09T23:57:05.437Z,99427.41
2023-11-09T23:59:18.238Z,99426.38
